Time;durP1;ratioP1;P1;durP2;ratioP2;P2;SDS_P1;SDS_P2;PMS_P1;PMS_P2;Temp;Humidity;BMP_temperature;BMP_pressure;BME280_temperature;BME280_humidity;BME280_pressure;Samples;Min_cycle;Max_cycle;Signal;HPM_P1;HPM_P2
2023/08/01 00:01:48;;;;;;;20.27;10.85;;;;;;;26.30;73.08;100463.06;4953515;28;20375;-79
2023/08/01 00:04:16;;;;;;;14.02;9.38;;;;;;;26.20;73.05;100459.09;4950060;28;20050;-79
2023/08/01 00:06:45;;;;;;;13.98;9.95;;;;;;;26.12;73.33;100456.75;4946694;28;20056;-80
2023/08/01 00:09:11;;;;;;;11.82;9.35;;;;;;;26.05;73.48;100458.81;4965425;28;20189;-79
2023/08/01 00:11:38;;;;;;;18.38;10.02;;;;;;;26.12;73.56;100481.25;4937909;28;20050;-78
2023/08/01 00:14:09;;;;;;;21.35;9.68;;;;;;;26.03;73.21;100454.66;4923887;28;20050;-81
2023/08/01 00:16:37;;;;;;;17.25;10.18;;;;;;;25.91;73.48;100438.41;4944330;28;20051;-79
2023/08/01 00:19:04;;;;;;;18.38;10.27;;;;;;;25.92;73.13;100434.59;4954645;28;20073;-79
2023/08/01 00:21:35;;;;;;;15.18;9.63;;;;;;;25.98;72.73;100437.19;4984920;28;20057;-79
2023/08/01 00:24:02;;;;;;;17.17;9.93;;;;;;;26.11;72.53;100455.09;4948501;28;20522;-78
2023/08/01 00:26:29;;;;;;;16.75;9.23;;;;;;;25.99;71.48;100438.00;4941876;28;20129;-80
2023/08/01 00:28:56;;;;;;;14.88;9.00;;;;;;;25.90;70.89;100423.97;4926955;28;20236;-77
2023/08/01 00:31:22;;;;;;;12.95;8.98;;;;;;;26.22;70.40;100443.34;4959569;28;20057;-77
2023/08/01 00:33:49;;;;;;;11.43;8.13;;;;;;;26.41;68.72;100445.88;4949969;28;20077;-79
2023/08/01 00:36:16;;;;;;;11.40;8.30;;;;;;;26.46;68.53;100426.06;4943743;28;20473;-80
2023/08/01 00:38:43;;;;;;;18.27;9.02;;;;;;;26.54;67.63;100426.50;4925993;28;20494;-77
2023/08/01 00:41:10;;;;;;;9.32;7.32;;;;;;;26.60;66.96;100409.22;4944938;28;20485;-80
2023/08/01 00:43:36;;;;;;;14.82;7.88;;;;;;;26.60;67.47;100421.97;4958518;28;20269;-79
2023/08/01 00:46:06;;;;;;;13.30;8.68;;;;;;;26.18;67.47;100360.56;4961810;28;20047;-80
2023/08/01 00:48:32;;;;;;;16.38;8.90;;;;;;;26.44;67.31;100415.44;4947767;28;20055;-80
2023/08/01 00:51:03;;;;;;;21.48;9.63;;;;;;;26.19;68.56;100396.75;4937834;28;20039;-78
2023/08/01 00:53:31;;;;;;;17.60;9.82;;;;;;;26.01;69.05;100370.59;4941843;28;20058;-79
2023/08/01 00:56:05;;;;;;;13.07;8.55;;;;;;;26.26;68.96;100385.72;4965375;28;20046;-79
2023/08/01 00:58:35;;;;;;;13.00;8.95;;;;;;;26.29;69.45;100401.53;4961159;28;20501;-80
2023/08/01 01:01:03;;;;;;;13.90;8.88;;;;;;;26.15;69.83;100380.09;4965993;28;20360;-81
2023/08/01 01:03:31;;;;;;;11.48;8.45;;;;;;;25.96;69.15;100356.91;4953838;28;20058;-77
2023/08/01 01:06:37;;;;;;;15.35;8.30;;;;;;;25.99;68.32;100357.22;4944424;28;20050;-79
2023/08/01 01:09:18;;;;;;;14.45;7.95;;;;;;;25.16;66.63;100237.09;4959456;28;20413;-79
2023/08/01 01:11:46;;;;;;;17.83;7.53;;;;;;;26.12;66.24;100382.47;4952048;28;20058;-78
2023/08/01 01:14:13;;;;;;;17.73;8.38;;;;;;;26.08;66.28;100367.72;4961508;28;20049;-77
2023/08/01 01:16:39;;;;;;;10.60;7.82;;;;;;;26.09;66.34;100375.63;4951726;28;20414;-78
2023/08/01 01:19:09;;;;;;;13.15;7.88;;;;;;;26.00;66.62;100382.56;4969172;28;20050;-79
2023/08/01 01:21:41;;;;;;;12.40;7.70;;;;;;;25.87;65.23;100350.19;4968280;28;20045;-79
2023/08/01 01:24:11;;;;;;;17.13;7.82;;;;;;;25.55;64.14;100316.13;4942340;28;20554;-79
2023/08/01 01:26:41;;;;;;;13.27;8.48;;;;;;;25.60;64.15;100339.88;4934810;28;20054;-78
2023/08/01 01:29:09;;;;;;;12.88;7.43;;;;;;;25.56;64.03;100352.31;4963496;28;20129;-80
2023/08/01 01:31:37;;;;;;;13.30;7.18;;;;;;;25.59;64.69;100351.84;4965140;28;20084;-79
2023/08/01 01:34:04;;;;;;;10.27;7.10;;;;;;;25.07;62.99;100270.31;4957457;28;20058;-78
2023/08/01 01:36:31;;;;;;;10.27;7.25;;;;;;;25.26;63.58;100317.19;4947266;28;20525;-80
2023/08/01 01:38:57;;;;;;;10.75;6.90;;;;;;;25.46;64.61;100355.63;4941731;28;20093;-78
2023/08/01 01:41:25;;;;;;;13.93;6.97;;;;;;;25.87;66.41;100371.94;4935662;28;20054;-78
2023/08/01 01:43:51;;;;;;;9.95;6.53;;;;;;;25.84;62.51;100356.09;4937301;28;20053;-78
2023/08/01 01:46:18;;;;;;;13.55;7.20;;;;;;;25.65;61.67;100339.97;4940267;28;20088;-79
2023/08/01 01:48:48;;;;;;;9.95;7.13;;;;;;;25.74;60.38;100345.88;4938377;28;20054;-78
2023/08/01 01:51:14;;;;;;;12.60;6.57;;;;;;;25.43;62.62;100290.09;4949945;28;20518;-78
2023/08/01 01:53:44;;;;;;;10.75;6.68;;;;;;;25.92;63.05;100350.28;4907803;28;20129;-78
2023/08/01 01:56:11;;;;;;;10.65;7.20;;;;;;;25.59;62.95;100262.13;4957849;28;20175;-79
2023/08/01 01:58:37;;;;;;;10.80;7.32;;;;;;;25.85;61.75;100339.56;4958138;28;20057;-79
2023/08/01 02:01:06;;;;;;;11.32;7.05;;;;;;;25.70;61.39;100329.19;4955496;28;20051;-79
2023/08/01 02:03:33;;;;;;;15.30;7.35;;;;;;;25.50;62.29;100310.59;4928750;28;20058;-78
2023/08/01 02:06:09;;;;;;;11.90;7.20;;;;;;;25.73;61.87;100353.19;4947002;28;20049;-78
2023/08/01 02:08:36;;;;;;;15.35;7.38;;;;;;;25.57;62.74;100310.47;4931912;28;20573;-78
2023/08/01 02:11:02;;;;;;;12.68;6.93;;;;;;;25.25;62.51;100267.47;4933588;28;20056;-77
2023/08/01 02:13:29;;;;;;;10.82;6.80;;;;;;;25.48;61.82;100298.34;4926427;28;20494;-80
2023/08/01 02:16:00;;;;;;;12.68;6.47;;;;;;;25.50;62.40;100301.63;4889958;28;20054;-80
2023/08/01 02:18:27;;;;;;;11.32;6.65;;;;;;;25.68;60.93;100330.50;4909861;28;20505;-79
2023/08/01 02:20:54;;;;;;;12.50;6.72;;;;;;;25.73;60.63;100330.59;4932160;28;20494;-79
2023/08/01 02:23:20;;;;;;;12.50;6.50;;;;;;;25.65;59.41;100318.22;4913148;28;20046;-78
2023/08/01 02:25:47;;;;;;;11.73;7.10;;;;;;;25.74;60.33;100322.22;4929865;28;20046;-78
2023/08/01 02:28:17;;;;;;;13.27;7.40;;;;;;;25.55;61.31;100305.28;4905955;28;20101;-78
2023/08/01 02:30:44;;;;;;;12.48;6.28;;;;;;;25.58;61.05;100325.69;4907461;28;20056;-77
2023/08/01 02:33:11;;;;;;;11.07;6.90;;;;;;;25.41;61.81;100308.53;4921498;28;20576;-77
2023/08/01 02:35:38;;;;;;;11.65;6.90;;;;;;;25.26;62.52;100309.84;4919284;28;20086;-77
2023/08/01 02:38:09;;;;;;;13.45;6.93;;;;;;;25.11;62.76;100298.66;4894069;28;20263;-79
2023/08/01 02:40:35;;;;;;;10.55;6.47;;;;;;;25.28;62.65;100321.31;4912887;28;20046;-79
2023/08/01 02:43:09;;;;;;;9.80;6.68;;;;;;;25.25;62.14;100329.13;4934632;28;20049;-79
2023/08/01 02:45:37;;;;;;;14.40;7.38;;;;;;;25.19;61.50;100327.38;4963045;28;20519;-78
2023/08/01 02:48:04;;;;;;;10.73;6.68;;;;;;;25.22;61.81;100327.72;4946470;28;20057;-78
2023/08/01 02:50:31;;;;;;;10.88;6.38;;;;;;;25.02;61.33;100300.09;4948719;28;20465;-79
2023/08/01 02:52:58;;;;;;;9.32;6.68;;;;;;;24.93;61.07;100297.75;4940669;28;20431;-78
2023/08/01 02:55:24;;;;;;;11.15;7.03;;;;;;;25.06;61.50;100312.13;4960669;28;20045;-78
2023/08/01 02:57:56;;;;;;;13.57;7.07;;;;;;;25.09;61.60;100322.50;4943764;28;20348;-79
2023/08/01 03:00:31;;;;;;;9.18;6.25;;;;;;;24.97;62.21;100305.41;4951284;28;20260;-79
2023/08/01 03:03:03;;;;;;;12.13;7.05;;;;;;;24.71;63.13;100261.41;4935600;28;20537;-79
2023/08/01 03:05:31;;;;;;;12.82;6.45;;;;;;;24.97;63.43;100291.84;4900084;28;20057;-79
2023/08/01 03:07:58;;;;;;;9.63;6.85;;;;;;;25.13;63.02;100308.22;4942026;28;20408;-78
2023/08/01 03:10:30;;;;;;;11.55;7.53;;;;;;;24.95;63.39;100286.63;4957506;28;20492;-79
2023/08/01 03:13:03;;;;;;;12.40;6.97;;;;;;;25.00;62.71;100302.22;4942413;28;20089;-79
2023/08/01 03:15:30;;;;;;;13.10;6.55;;;;;;;25.10;59.46;100324.19;4942688;28;20132;-80
2023/08/01 03:17:57;;;;;;;16.50;7.40;;;;;;;25.12;61.32;100322.88;4917742;28;20050;-79
2023/08/01 03:20:24;;;;;;;15.75;7.30;;;;;;;25.12;61.46;100339.16;4932234;28;20056;-79
2023/08/01 03:22:55;;;;;;;11.40;7.13;;;;;;;25.13;61.22;100338.09;4946773;28;20222;-79
2023/08/01 03:25:22;;;;;;;;;;;;;;;25.02;61.75;100340.81;4958663;28;20358;-78
2023/08/01 03:27:49;;;;;;;13.70;7.22;;;;;;;24.84;62.17;100310.03;4956510;28;20282;-79
2023/08/01 03:30:15;;;;;;;12.68;7.68;;;;;;;25.02;62.74;100338.91;4976587;28;20050;-78
2023/08/01 03:32:42;;;;;;;13.02;7.65;;;;;;;24.92;63.00;100323.25;4978193;28;20129;-77
2023/08/01 03:35:09;;;;;;;11.50;7.22;;;;;;;24.94;62.38;100334.69;4937716;28;20428;-78
2023/08/01 03:37:36;;;;;;;10.98;7.70;;;;;;;24.46;61.37;100265.22;4931145;28;20939;-77
2023/08/01 03:40:03;;;;;;;9.75;5.97;;;;;;;24.53;60.25;100278.66;4908434;28;20381;-78
2023/08/01 03:42:29;;;;;;;12.65;6.57;;;;;;;24.63;59.67;100283.50;4930924;28;20357;-77
2023/08/01 03:45:00;;;;;;;13.73;5.60;;;;;;;24.86;59.61;100307.91;4954680;28;20116;-79
2023/08/01 03:47:35;;;;;;;10.07;6.25;;;;;;;24.98;59.96;100307.91;4910621;28;20192;-77
2023/08/01 03:50:09;;;;;;;11.20;6.93;;;;;;;24.99;59.54;100303.28;4889308;28;20514;-78
2023/08/01 03:52:36;;;;;;;11.05;6.25;;;;;;;24.83;59.50;100286.69;4900840;28;20091;-79
2023/08/01 03:55:07;;;;;;;10.40;6.38;;;;;;;24.92;58.10;100279.78;4908882;28;20053;-78
2023/08/01 03:57:38;;;;;;;8.93;5.95;;;;;;;25.11;58.50;100312.25;4948497;28;20054;-78
2023/08/01 04:00:13;;;;;;;14.52;6.43;;;;;;;24.93;58.23;100303.19;4945218;28;20454;-79
2023/08/01 04:02:43;;;;;;;9.35;6.30;;;;;;;24.97;58.48;100299.97;4958414;28;20406;-78
2023/08/01 04:05:14;;;;;;;10.15;6.43;;;;;;;24.67;58.06;100265.69;4932733;28;20294;-78
2023/08/01 04:07:41;;;;;;;13.90;6.38;;;;;;;24.56;58.12;100258.38;4924213;28;20214;-79
2023/08/01 04:10:08;;;;;;;11.25;6.53;;;;;;;24.76;58.38;100287.84;4913441;28;20058;-77
2023/08/01 04:12:35;;;;;;;11.20;6.47;;;;;;;24.35;58.04;100225.34;4904748;28;20057;-79
2023/08/01 04:15:01;;;;;;;9.68;6.22;;;;;;;24.81;58.74;100296.09;4906806;28;20387;-79
2023/08/01 04:17:29;;;;;;;13.98;6.63;;;;;;;24.75;58.70;100295.16;4934319;28;20272;-79
2023/08/01 04:19:59;;;;;;;11.25;5.47;;;;;;;24.71;58.26;100293.97;4917128;28;20296;-79
2023/08/01 04:22:27;;;;;;;11.25;6.20;;;;;;;24.71;57.75;100293.97;4889023;28;20054;-79
2023/08/01 04:24:54;;;;;;;10.68;6.85;;;;;;;24.45;57.02;100247.25;4945807;28;20566;-79
2023/08/01 04:27:21;;;;;;;10.50;5.57;;;;;;;24.21;57.05;100211.16;4945208;28;20413;-77
2023/08/01 04:29:48;;;;;;;14.00;7.53;;;;;;;24.39;57.34;100237.34;4905363;28;20287;-79
2023/08/01 04:32:15;;;;;;;10.75;6.22;;;;;;;24.15;59.51;100171.41;4908053;28;20172;-78
2023/08/01 04:34:42;;;;;;;11.77;6.25;;;;;;;24.89;58.20;100264.00;4902491;28;20485;-78
2023/08/01 04:37:10;;;;;;;11.75;6.03;;;;;;;25.02;58.77;100249.31;4921303;28;20058;-78
2023/08/01 04:39:40;;;;;;;9.75;5.40;;;;;;;25.13;57.63;100232.16;4945876;28;20708;-78
2023/08/01 04:42:12;;;;;;;14.02;6.30;;;;;;;25.12;56.13;100224.25;4927735;28;20061;-80
2023/08/01 04:44:40;;;;;;;14.57;7.63;;;;;;;25.25;55.95;100234.88;4966465;28;20048;-78
2023/08/01 04:47:06;;;;;;;11.57;6.20;;;;;;;25.22;56.13;100221.78;4910642;28;20522;-79
2023/08/01 04:49:35;;;;;;;11.23;6.60;;;;;;;25.67;59.17;100222.84;4912279;28;20054;-80
2023/08/01 04:52:02;;;;;;;10.77;6.20;;;;;;;25.75;56.02;100222.44;4900716;28;20454;-78
2023/08/01 04:54:37;;;;;;;15.10;7.57;;;;;;;25.63;54.70;100219.78;4936895;28;20444;-80
2023/08/01 04:57:07;;;;;;;10.82;5.70;;;;;;;25.61;54.31;100240.13;4949592;28;20049;-79
2023/08/01 04:59:34;;;;;;;11.80;5.95;;;;;;;25.48;55.48;100249.41;4951492;28;20050;-80
2023/08/01 05:02:00;;;;;;;15.10;8.63;;;;;;;25.31;56.04;100249.38;4963105;28;20418;-79
2023/08/01 05:04:27;;;;;;;17.25;6.90;;;;;;;24.94;56.27;100211.69;4937925;28;20078;-79
2023/08/01 05:06:54;;;;;;;12.10;6.78;;;;;;;24.90;56.33;100221.38;4957325;28;20057;-78
2023/08/01 05:09:20;;;;;;;10.32;6.72;;;;;;;25.19;57.02;100271.13;4938173;28;20413;-79
2023/08/01 05:11:47;;;;;;;14.15;6.78;;;;;;;24.97;57.24;100242.97;4898931;28;20050;-79
2023/08/01 05:14:14;;;;;;;9.52;6.38;;;;;;;24.99;56.71;100241.66;4899915;28;20053;-79
2023/08/01 05:16:41;;;;;;;12.60;6.50;;;;;;;25.11;56.96;100263.34;4913341;28;20176;-79
2023/08/01 05:19:11;;;;;;;12.63;6.15;;;;;;;25.45;56.47;100268.94;4953310;28;20473;-78
2023/08/01 05:21:37;;;;;;;10.27;6.40;;;;;;;25.33;57.05;100253.50;4947661;28;20133;-78
2023/08/01 05:24:04;;;;;;;15.18;6.07;;;;;;;25.41;55.97;100259.59;4935485;28;20058;-79
2023/08/01 05:26:31;;;;;;;12.55;5.93;;;;;;;25.38;54.42;100244.63;4956514;28;20458;-78
2023/08/01 05:28:58;;;;;;;12.35;6.10;;;;;;;25.52;55.59;100247.88;4955678;28;20399;-78
2023/08/01 05:31:24;;;;;;;8.27;5.53;;;;;;;25.01;55.20;100122.78;4952651;28;20445;-78
2023/08/01 05:33:52;;;;;;;12.90;6.07;;;;;;;25.75;56.23;100223.28;4950092;28;20057;-78
2023/08/01 05:36:19;;;;;;;13.05;6.40;;;;;;;25.66;54.50;100186.69;4940041;28;20093;-78
2023/08/01 05:38:45;;;;;;;13.93;5.85;;;;;;;25.30;53.48;100139.88;4960504;28;20216;-77
2023/08/01 05:41:12;;;;;;;11.38;6.15;;;;;;;25.93;54.56;100229.59;4944658;28;20157;-77
2023/08/01 05:43:39;;;;;;;8.25;5.45;;;;;;;25.96;54.02;100223.66;4958557;28;20050;-77
2023/08/01 05:46:09;;;;;;;10.90;6.13;;;;;;;26.18;54.52;100234.59;4937109;28;20494;-80
2023/08/01 05:48:44;;;;;;;12.90;6.18;;;;;;;25.98;53.94;100183.44;4927403;28;20327;-79
2023/08/01 05:51:11;;;;;;;19.08;7.18;;;;;;;26.28;54.05;100228.50;4938266;28;20057;-77
2023/08/01 05:53:42;;;;;;;12.43;5.93;;;;;;;26.08;55.01;100189.03;4953288;28;20052;-80
2023/08/01 05:56:08;;;;;;;10.02;5.55;;;;;;;26.31;53.60;100214.38;4927536;28;20077;-79
2023/08/01 05:58:35;;;;;;;15.80;6.78;;;;;;;26.29;54.99;100186.59;4931836;28;20053;-79
2023/08/01 06:01:03;;;;;;;12.95;6.00;;;;;;;26.64;56.04;100208.06;4954407;28;20121;-80
2023/08/01 06:03:30;;;;;;;11.95;6.80;;;;;;;26.67;53.98;100206.75;4936459;28;20109;-81
2023/08/01 06:05:57;;;;;;;20.27;6.35;;;;;;;26.58;54.97;100173.69;4967874;28;20096;-79
2023/08/01 06:08:24;;;;;;;13.82;6.72;;;;;;;26.75;54.29;100188.06;4929868;28;20429;-80
2023/08/01 06:10:51;;;;;;;12.80;5.93;;;;;;;26.77;54.47;100198.69;4935682;28;20051;-79
2023/08/01 06:13:19;;;;;;;11.95;6.57;;;;;;;26.67;53.34;100180.34;4942391;28;20497;-80
2023/08/01 06:15:50;;;;;;;12.85;6.10;;;;;;;26.72;52.92;100206.81;4960101;28;20054;-79
2023/08/01 06:18:18;;;;;;;22.33;18.70;;;;;;;26.72;53.86;100218.50;4961258;28;20080;-79
2023/08/01 06:20:50;;;;;;;15.45;7.88;;;;;;;26.80;54.12;100222.72;4904330;28;20308;-80
2023/08/01 06:23:19;;;;;;;14.27;6.13;;;;;;;27.10;57.07;100200.44;4903579;28;20430;-80
2023/08/01 06:25:46;;;;;;;13.32;6.60;;;;;;;27.27;54.26;100203.13;4910454;28;20055;-80
2023/08/01 06:28:13;;;;;;;11.35;6.00;;;;;;;27.25;52.61;100195.19;4926556;28;20593;-79
2023/08/01 06:30:40;;;;;;;16.15;5.68;;;;;;;27.15;52.05;100188.78;4948339;28;20064;-80
2023/08/01 06:33:06;;;;;;;10.23;6.18;;;;;;;27.32;51.55;100207.78;4932800;28;20053;-80
2023/08/01 06:35:33;;;;;;;14.35;7.05;;;;;;;27.23;51.35;100188.34;4926302;28;20410;-79
2023/08/01 06:38:00;;;;;;;12.48;5.95;;;;;;;27.16;51.05;100187.69;4924665;28;20038;-80
2023/08/01 06:40:27;;;;;;;11.75;6.53;;;;;;;27.20;51.62;100191.59;4920565;28;20126;-78
2023/08/01 06:42:54;;;;;;;16.05;6.22;;;;;;;26.94;53.01;100161.31;4963797;28;20465;-79
2023/08/01 06:45:21;;;;;;;13.63;6.45;;;;;;;27.17;55.51;100170.28;4940694;28;20053;-79
2023/08/01 06:47:50;;;;;;;12.48;6.78;;;;;;;27.32;51.86;100192.25;4953893;28;20904;-79
2023/08/01 06:50:22;;;;;;;15.57;6.82;;;;;;;27.26;51.55;100179.69;4923411;28;20241;-78
2023/08/01 06:52:52;;;;;;;12.32;6.28;;;;;;;27.24;51.82;100160.03;4889874;28;20732;-78
2023/08/01 06:55:20;;;;;;;11.98;6.32;;;;;;;27.30;51.66;100175.34;4934770;28;20432;-79
2023/08/01 06:57:47;;;;;;;15.30;6.03;;;;;;;27.47;51.07;100183.41;4939914;28;20064;-78
2023/08/01 07:00:14;;;;;;;12.52;6.70;;;;;;;27.18;50.01;100120.16;4920219;28;20051;-76
2023/08/01 07:02:43;;;;;;;13.80;6.63;;;;;;;27.36;50.62;100147.06;4921168;28;20055;-79
2023/08/01 07:05:10;;;;;;;13.63;6.28;;;;;;;27.59;51.18;100188.69;4936712;28;20050;-78
2023/08/01 07:07:37;;;;;;;14.32;6.45;;;;;;;27.25;50.74;100135.25;4915453;28;20073;-80
2023/08/01 07:10:08;;;;;;;13.20;6.05;;;;;;;27.60;50.35;100176.69;4877746;28;20236;-80
2023/08/01 07:12:48;;;;;;;12.60;5.82;;;;;;;27.66;51.68;100170.22;4890999;28;20351;-80
2023/08/01 07:15:21;;;;;;;14.32;6.75;;;;;;;27.56;52.11;100140.16;4881523;28;20743;-80
2023/08/01 07:17:55;;;;;;;12.88;6.60;;;;;;;27.68;50.48;100154.44;4889519;28;20309;-80
2023/08/01 07:20:32;;;;;;;19.27;7.15;;;;;;;27.84;50.49;100178.03;4897738;28;20273;-78
2023/08/01 07:23:00;;;;;;;8.50;6.35;;;;;;;27.93;52.15;100175.63;4891931;28;20070;-79
2023/08/01 07:25:31;;;;;;;12.25;6.53;;;;;;;27.67;50.33;100125.50;4934443;28;20299;-79
2023/08/01 07:27:58;;;;;;;15.20;7.20;;;;;;;27.63;51.06;100133.38;4929610;28;20051;-79
2023/08/01 07:30:26;;;;;;;11.32;6.70;;;;;;;27.73;51.67;100159.91;4953705;28;20054;-81
2023/08/01 07:32:53;;;;;;;14.88;6.68;;;;;;;27.73;51.29;100148.19;4941374;28;20134;-78
2023/08/01 07:35:20;;;;;;;10.80;5.90;;;;;;;27.77;50.55;100144.69;4929233;28;20515;-78
2023/08/01 07:37:52;;;;;;;9.48;6.35;;;;;;;27.76;52.10;100148.47;4912765;28;20054;-79
2023/08/01 07:40:19;;;;;;;10.32;6.55;;;;;;;27.53;50.50;100099.78;4887298;28;20397;-78
2023/08/01 07:42:46;;;;;;;14.70;7.60;;;;;;;27.67;51.02;100128.22;4915066;28;20050;-78
2023/08/01 07:45:14;;;;;;;12.77;6.80;;;;;;;27.96;50.61;100160.66;4918691;28;20133;-79
2023/08/01 07:47:41;;;;;;;12.82;7.43;;;;;;;27.84;50.76;100150.78;4950416;28;20046;-78
2023/08/01 07:50:08;;;;;;;16.20;7.28;;;;;;;27.94;51.35;100166.38;4908145;28;20336;-78
2023/08/01 07:52:39;;;;;;;16.40;7.00;;;;;;;27.78;52.18;100140.03;4929049;28;20517;-79
2023/08/01 07:55:07;;;;;;;15.63;7.55;;;;;;;27.65;52.19;100124.97;4914553;28;20067;-78
2023/08/01 07:57:33;;;;;;;21.42;7.05;;;;;;;27.87;50.94;100150.25;4928387;28;20101;-79
2023/08/01 08:00:00;;;;;;;15.80;6.85;;;;;;;27.97;51.45;100165.03;4900062;28;20365;-79
2023/08/01 08:02:27;;;;;;;11.50;7.13;;;;;;;27.90;51.41;100165.25;4915004;28;20760;-80
2023/08/01 08:04:54;;;;;;;18.42;7.47;;;;;;;28.00;51.21;100181.69;4939929;28;20039;-78
2023/08/01 08:07:20;;;;;;;12.23;6.82;;;;;;;28.13;51.21;100180.41;4917605;28;20233;-80
2023/08/01 08:09:47;;;;;;;15.60;7.25;;;;;;;28.17;52.09;100181.53;4917807;28;20058;-78
2023/08/01 08:12:14;;;;;;;13.00;6.88;;;;;;;28.02;51.51;100156.88;4923415;28;20121;-79
2023/08/01 08:14:41;;;;;;;22.08;7.65;;;;;;;28.26;52.02;100179.94;4920889;28;20043;-78
2023/08/01 08:17:13;;;;;;;14.75;6.72;;;;;;;28.48;52.29;100166.19;4907117;28;20361;-79
2023/08/01 08:19:42;;;;;;;16.35;8.38;;;;;;;28.95;50.29;100148.03;4920835;28;20467;-79
2023/08/01 08:22:16;;;;;;;16.58;7.40;;;;;;;28.93;49.09;100163.88;4914236;28;20069;-79
2023/08/01 08:24:48;;;;;;;17.63;7.30;;;;;;;29.18;49.72;100157.69;4938505;28;20058;-78
2023/08/01 08:27:15;;;;;;;21.75;8.57;;;;;;;29.05;50.42;100130.84;4927452;28;20051;-78
2023/08/01 08:29:42;;;;;;;15.52;7.47;;;;;;;29.06;50.41;100155.22;4934396;28;20430;-78
2023/08/01 08:32:08;;;;;;;28.92;8.50;;;;;;;29.02;50.33;100140.41;4941973;28;20489;-78
2023/08/01 08:34:35;;;;;;;19.70;7.13;;;;;;;28.90;51.21;100150.75;4943712;28;20054;-82
2023/08/01 08:37:04;;;;;;;24.85;9.35;;;;;;;28.92;50.97;100151.31;4943978;28;20427;-78
2023/08/01 08:39:31;;;;;;;14.98;8.02;;;;;;;28.90;49.78;100164.41;4930774;28;20043;-78
2023/08/01 08:41:59;;;;;;;23.95;8.25;;;;;;;28.86;50.60;100168.78;4934497;28;20057;-78
2023/08/01 08:44:29;;;;;;;21.92;7.85;;;;;;;28.95;51.15;100172.63;4923352;28;20058;-79
2023/08/01 08:47:01;;;;;;;;;;;;;;;28.94;49.15;100165.53;4929903;28;20343;-79
2023/08/01 08:49:28;;;;;;;14.00;8.43;;;;;;;28.82;51.10;100130.25;4925929;28;19928;-78
2023/08/01 08:51:56;;;;;;;22.30;8.93;;;;;;;28.73;51.42;100143.59;4927410;28;20850;-78
2023/08/01 08:54:23;;;;;;;14.77;7.90;;;;;;;28.93;49.73;100166.59;4934480;28;20061;-79
2023/08/01 08:56:50;;;;;;;16.80;8.50;;;;;;;28.83;50.08;100159.19;4924002;28;20050;-84
2023/08/01 08:59:18;;;;;;;16.17;8.68;;;;;;;28.93;50.44;100170.19;4908184;28;20069;-80
2023/08/01 09:01:45;;;;;;;15.35;8.15;;;;;;;29.07;49.93;100158.75;4945977;28;20050;-79
2023/08/01 09:04:15;;;;;;;15.35;8.18;;;;;;;28.90;49.63;100139.84;4947731;28;20093;-77
2023/08/01 09:06:49;;;;;;;27.95;8.40;;;;;;;28.88;50.83;100125.63;4944307;28;20557;-78
2023/08/01 09:09:18;;;;;;;18.98;7.75;;;;;;;28.85;50.59;100126.97;4947442;28;20046;-79
2023/08/01 09:11:52;;;;;;;15.10;9.25;;;;;;;29.10;49.55;100139.91;4947930;28;20054;-79
2023/08/01 09:14:22;;;;;;;24.35;9.00;;;;;;;29.18;50.56;100125.72;4947250;28;20056;-80
2023/08/01 09:16:49;;;;;;;28.02;8.75;;;;;;;29.31;49.73;100142.69;4961442;28;20218;-79
2023/08/01 09:19:21;;;;;;;17.00;8.93;;;;;;;29.39;48.45;100137.47;4937331;28;20058;-78
2023/08/01 09:21:49;;;;;;;15.15;7.97;;;;;;;29.34;48.42;100132.00;4933702;28;20112;-77
2023/08/01 09:24:18;;;;;;;17.80;7.93;;;;;;;29.35;49.28;100135.59;4941252;28;20121;-78
2023/08/01 09:26:46;;;;;;;13.15;8.38;;;;;;;29.38;48.65;100091.28;4940202;28;20080;-79
2023/08/01 09:29:13;;;;;;;12.07;8.25;;;;;;;29.56;47.94;100119.97;4932414;28;20086;-77
2023/08/01 09:31:43;;;;;;;14.98;8.43;;;;;;;29.56;47.62;100104.38;4956649;28;20060;-79
2023/08/01 09:34:28;;;;;;;12.75;7.05;;;;;;;29.56;47.22;100104.38;4957074;28;20058;-80
2023/08/01 09:36:59;;;;;;;12.38;7.55;;;;;;;29.78;47.31;100108.75;4934834;28;20308;-79
2023/08/01 09:39:27;;;;;;;17.40;8.18;;;;;;;29.88;48.57;100116.97;4925108;28;20054;-79
2023/08/01 09:42:01;;;;;;;13.85;7.28;;;;;;;29.62;46.84;100080.59;4936101;28;20050;-80
2023/08/01 09:44:30;;;;;;;14.68;7.57;;;;;;;30.09;48.39;100108.72;4942182;28;20050;-79
2023/08/01 09:47:04;;;;;;;12.48;7.70;;;;;;;30.03;48.15;100111.47;4963087;28;20502;-77
2023/08/01 09:49:34;;;;;;;15.63;7.32;;;;;;;29.91;46.91;100093.72;4951136;28;20437;-80
2023/08/01 09:52:01;;;;;;;14.38;7.68;;;;;;;30.01;47.63;100094.50;4969344;28;20534;-77
2023/08/01 09:54:28;;;;;;;16.88;8.65;;;;;;;30.16;47.03;100109.25;4978018;28;20096;-78
2023/08/01 09:56:56;;;;;;;19.50;7.68;;;;;;;30.22;47.85;100106.22;4961742;28;20501;-80
2023/08/01 09:59:26;;;;;;;21.25;8.20;;;;;;;30.22;47.76;100083.47;4939281;28;20058;-79
2023/08/01 10:01:54;;;;;;;19.57;8.50;;;;;;;29.17;47.12;99910.88;4942094;28;20061;-79
2023/08/01 10:04:28;;;;;;;15.27;7.45;;;;;;;30.24;47.34;100038.31;4937390;28;20050;-79
2023/08/01 10:07:09;;;;;;;16.42;8.60;;;;;;;30.41;47.53;100084.50;4962573;28;20054;-78
2023/08/01 10:09:36;;;;;;;12.20;7.57;;;;;;;30.45;46.47;100085.59;4945689;28;20062;-79
2023/08/01 10:12:05;;;;;;;12.75;8.57;;;;;;;30.30;46.71;100063.78;4944356;28;20054;-76
2023/08/01 10:14:32;;;;;;;12.75;8.15;;;;;;;30.39;46.78;100066.72;4956660;28;20058;-79
2023/08/01 10:16:59;;;;;;;16.77;7.78;;;;;;;30.53;47.36;100066.94;4960104;28;20060;-79
2023/08/01 10:19:26;;;;;;;15.40;7.50;;;;;;;30.53;45.86;100042.28;4950860;28;20052;-79
2023/08/01 10:21:53;;;;;;;11.40;7.65;;;;;;;30.75;46.58;100064.59;4962851;28;20482;-79
2023/08/01 10:24:24;;;;;;;19.45;8.73;;;;;;;30.47;46.59;100025.06;4942358;28;20046;-78
2023/08/01 10:26:51;;;;;;;14.70;7.78;;;;;;;30.65;46.36;100057.28;4944315;28;20046;-78
2023/08/01 10:29:17;;;;;;;10.95;7.63;;;;;;;30.70;46.18;100069.31;4937169;28;20046;-78
2023/08/01 10:31:56;;;;;;;17.70;8.88;;;;;;;30.52;46.10;100036.00;4958139;28;20050;-78
2023/08/01 10:34:23;;;;;;;13.43;8.43;;;;;;;30.51;46.18;100041.75;4982814;28;20133;-79
2023/08/01 10:36:57;;;;;;;10.35;6.90;;;;;;;30.60;46.53;100029.09;4958902;28;20064;-79
2023/08/01 10:39:27;;;;;;;15.43;7.97;;;;;;;30.59;45.76;100044.72;4947156;28;20618;-80
2023/08/01 10:41:59;;;;;;;13.15;7.75;;;;;;;30.21;44.99;99983.28;4967408;28;20053;-79
2023/08/01 10:44:27;;;;;;;14.25;7.40;;;;;;;30.64;46.16;100020.03;4945316;28;20047;-80
2023/08/01 10:46:56;;;;;;;12.82;8.40;;;;;;;30.78;45.08;100014.75;4960100;28;20120;-78
2023/08/01 10:49:35;;;;;;;16.98;8.10;;;;;;;30.56;45.51;99995.16;4954477;28;20146;-79
2023/08/01 10:52:24;;;;;;;17.20;7.70;;;;;;;30.20;45.54;99957.03;4936954;28;20759;-78
2023/08/01 10:54:58;;;;;;;13.90;8.48;;;;;;;30.69;45.75;100030.16;4959441;28;20054;-77
2023/08/01 10:57:31;;;;;;;15.48;7.47;;;;;;;30.62;46.11;99989.38;4961163;28;20708;-79
2023/08/01 11:00:09;;;;;;;16.30;7.70;;;;;;;30.78;45.32;99956.38;4907715;28;20141;-80
2023/08/01 11:02:37;;;;;;;17.52;7.75;;;;;;;31.11;43.99;100012.31;4915046;28;20766;-79
2023/08/01 11:05:12;;;;;;;16.85;7.90;;;;;;;31.02;45.29;99990.19;4899170;28;20411;-79
2023/08/01 11:07:39;;;;;;;12.20;7.97;;;;;;;31.07;44.15;99983.81;4909466;28;20058;-79
2023/08/01 11:10:10;;;;;;;16.45;7.90;;;;;;;31.21;43.25;100001.25;4885480;28;20047;-78
2023/08/01 11:12:45;;;;;;;19.73;8.93;;;;;;;31.40;43.48;100014.28;4900295;28;20292;-79
2023/08/01 11:15:15;;;;;;;13.77;7.82;;;;;;;31.50;43.30;100008.69;4912053;28;20057;-78
2023/08/01 11:17:49;;;;;;;15.20;8.43;;;;;;;31.29;43.82;99975.97;4930090;28;20069;-78
2023/08/01 11:20:26;;;;;;;11.02;7.30;;;;;;;31.27;44.98;100005.59;4919044;28;20302;-78
2023/08/01 11:23:00;;;;;;;18.35;7.90;;;;;;;31.11;44.79;100001.34;4962561;28;20423;-79
2023/08/01 11:25:45;;;;;;;11.80;7.68;;;;;;;31.15;44.99;100015.31;4954446;28;20151;-79
2023/08/01 11:28:14;;;;;;;10.55;6.88;;;;;;;31.25;45.68;99983.13;4953406;28;20137;-80